Polfoss — V2PN7 — position and weather

sailwx.info

Track history (hours):
 
Tides and Currents Weather Stations Pressure Air Temp Water Temp Dewpoint Dewpoint Depression Visibility Wind Speed Wind Dir Waves Ship Positions

Polfoss

Last reported at 2015-Jan-24 17:05 UTC. Time now 2015-Jan-26 12:29 UTC.
Position N 70°27' E 022°15'.

Length 82 m; draft 5.4 m.

Type: Cargo ship. MMSI: 305081000.

Date/timePositionNaut miles runAvg speedWind from/ knotsBaromVisibWave heightAir tempDewpointWater temp
2015-Jan-24 17:05N 70°27' E 022°15'1014.3
2015-Jan-24 16:25N 70°29' E 022°43'1112.9
2015-Jan-24 15:33N 70°35' E 023°12'11 0.2
2015-Jan-22 13:18N 70°43' E 023°35'6 7.6
2015-Jan-22 12:33N 70°38' E 023°40'3 2.7
2015-Jan-22 11:34N 70°38' E 023°32'1514.8
2015-Jan-22 10:34N 70°30' E 022°54'9114.4
2015-Jan-22 04:14N 69°44' E 019°04'5 7.6
2015-Jan-22 03:33N 69°39' E 018°58'0 0.4
2015-Jan-22 02:33N 69°39' E 018°59'2 1.6
2015-Jan-22 01:33N 69°38' E 018°57'0 0.0
2015-Jan-22 00:33N 69°38' E 018°57'0 0.0
2015-Jan-21 23:33N 69°38' E 018°57'0 0.0
2015-Jan-21 22:50N 69°38' E 018°57'0 0.4
2015-Jan-21 22:46N 69°38' E 018°57'2 7.2
2015-Jan-21 22:34N 69°37' E 018°54'155 8.2
2015-Jan-21 03:32N 67°39' E 014°14'1515.0
2015-Jan-21 02:34N 67°25' E 014°27'1414.4
2015-Jan-21 01:33N 67°13' E 014°08'1514.8
2015-Jan-21 00:33N 67°01' E 013°44'3014.4
2015-Jan-20 22:29N 66°36' E 013°04'1313.5
2015-Jan-20 21:33N 66°24' E 012°59'1914.6
2015-Jan-20 20:14N 66°06' E 012°42'6714.2
2015-Jan-20 15:32N 65°04' E 011°45'1414.3
2015-Jan-20 14:33N 64°54' E 011°21'367 9.8
2015-Jan-19 01:06N 59°30' E 005°13'713.2
2015-Jan-19 00:33N 59°23' E 005°17'1514.6
2015-Jan-18 23:33N 59°09' E 005°23'1414.3
2015-Jan-18 22:34N 59°02' E 005°47'1010.4
2015-Jan-18 21:33N 58°51' E 005°45'1 1.2
2015-Jan-18 20:33N 58°52' E 005°45'1010.4
2015-Jan-18 19:33N 59°02' E 005°37'1313.0
2015-Jan-18 18:33N 58°50' E 005°27'22715.1
2015-Jan-18 03:30N 57°22' W 001°08'1515.6
2015-Jan-18 02:33N 57°16' W 001°33'131 5.2
2015-Jan-17 01:24N 55°08' W 000°42'1113.4
2015-Jan-17 00:33N 54°58' W 000°34'1313.3
2015-Jan-16 23:34N 54°46' W 000°24'1313.3
2015-Jan-16 22:34N 54°34' W 000°14'1414.0
2015-Jan-16 21:33N 54°21' W 000°05'1414.4
2015-Jan-16 20:33N 54°08' E 000°05'1514.8
2015-Jan-16 19:33N 53°54' E 000°14'1515.0
2015-Jan-16 18:33N 53°40' E 000°22'1111.5
2015-Jan-16 17:33N 53°34' E 000°06'1111.2
2015-Jan-16 16:33N 53°38' W 000°11'0 0.2
2015-Jan-16 15:33N 53°38' W 000°11'0 0.0
2015-Jan-16 14:34N 53°38' W 000°11'0 0.0
2015-Jan-16 13:33N 53°38' W 000°11'0 0.0
2015-Jan-16 12:33N 53°38' W 000°11'0 0.0
2015-Jan-16 11:33N 53°38' W 000°11'0 0.0
2015-Jan-16 10:33N 53°38' W 000°11'0 0.0
2015-Jan-16 09:34N 53°38' W 000°11'0 0.0
2015-Jan-16 08:33N 53°38' W 000°11'0 0.0
2015-Jan-16 07:33N 53°38' W 000°11'0 0.0
2015-Jan-16 06:34N 53°38' W 000°11'0 0.0
2015-Jan-16 05:33N 53°38' W 000°11'0 0.0
2015-Jan-16 04:33N 53°38' W 000°11'0 0.0
2015-Jan-16 03:34N 53°38' W 000°11'0 0.0
2015-Jan-16 02:34N 53°38' W 000°11'0 0.0
2015-Jan-16 01:33N 53°38' W 000°11'0 0.0
2015-Jan-16 00:33N 53°38' W 000°11'0 0.0
2015-Jan-15 23:33N 53°38' W 000°11'0 0.0
2015-Jan-15 22:33N 53°38' W 000°11'0 0.0
2015-Jan-15 21:33N 53°38' W 000°11'0 0.3
2015-Jan-15 20:33N 53°38' W 000°12'0 0.0
2015-Jan-15 19:33N 53°38' W 000°12'0 0.0
2015-Jan-15 18:33N 53°38' W 000°12'0 0.0
2015-Jan-15 17:34N 53°38' W 000°12'0 0.0
2015-Jan-15 16:34N 53°38' W 000°12'0 0.0
2015-Jan-15 15:34N 53°38' W 000°12'0 0.0
2015-Jan-15 14:33N 53°38' W 000°12'0 0.0
2015-Jan-15 13:33N 53°38' W 000°12'1 1.4
2015-Jan-15 12:33N 53°38' W 000°09'1211.7
2015-Jan-15 11:34N 53°33' E 000°09'1211.7
2015-Jan-15 10:33N 53°29' E 000°27'3912.8
2015-Jan-15 07:31N 53°13' E 001°26'1313.3
2015-Jan-15 06:33N 53°08' E 001°46'1313.3
2015-Jan-15 05:33N 53°01' E 002°05'7211.7
2015-Jan-14 23:24N 52°31' E 003°54'1011.2
2015-Jan-14 22:33N 52°31' E 004°09'1111.4
2015-Jan-14 21:33N 52°29' E 004°28'5 5.1
2015-Jan-14 20:33N 52°28' E 004°36'1 1.0
2015-Jan-14 19:34N 52°28' E 004°37'1 1.5
2015-Jan-14 18:33N 52°28' E 004°40'0 0.0
2015-Jan-14 17:32N 52°28' E 004°40'  
Track history (hours):
 
Tides and Currents Weather Stations Pressure Air Temp Water Temp Dewpoint Dewpoint Depression Visibility Wind Speed Wind Dir Waves Ship Positions

Polfoss

Last reported at 2015-Jan-24 17:05 UTC. Time now 2015-Jan-26 12:29 UTC.
Position N 70°27' E 022°15'.

Length 82 m; draft 5.4 m.

Type: Cargo ship. MMSI: 305081000.

Date/timePositionNaut miles runAvg speedWind from/ knotsBaromVisibWave heightAir tempDewpointWater temp
2015-Jan-24 17:05N 70°27' E 022°15'1014.3
2015-Jan-24 16:25N 70°29' E 022°43'1112.9
2015-Jan-24 15:33N 70°35' E 023°12'11 0.2
2015-Jan-22 13:18N 70°43' E 023°35'6 7.6
2015-Jan-22 12:33N 70°38' E 023°40'3 2.7
2015-Jan-22 11:34N 70°38' E 023°32'1514.8
2015-Jan-22 10:34N 70°30' E 022°54'9114.4
2015-Jan-22 04:14N 69°44' E 019°04'5 7.6
2015-Jan-22 03:33N 69°39' E 018°58'0 0.4
2015-Jan-22 02:33N 69°39' E 018°59'2 1.6
2015-Jan-22 01:33N 69°38' E 018°57'0 0.0
2015-Jan-22 00:33N 69°38' E 018°57'0 0.0
2015-Jan-21 23:33N 69°38' E 018°57'0 0.0
2015-Jan-21 22:50N 69°38' E 018°57'0 0.4
2015-Jan-21 22:46N 69°38' E 018°57'2 7.2
2015-Jan-21 22:34N 69°37' E 018°54'155 8.2
2015-Jan-21 03:32N 67°39' E 014°14'1515.0
2015-Jan-21 02:34N 67°25' E 014°27'1414.4
2015-Jan-21 01:33N 67°13' E 014°08'1514.8
2015-Jan-21 00:33N 67°01' E 013°44'3014.4
2015-Jan-20 22:29N 66°36' E 013°04'1313.5
2015-Jan-20 21:33N 66°24' E 012°59'1914.6
2015-Jan-20 20:14N 66°06' E 012°42'6714.2
2015-Jan-20 15:32N 65°04' E 011°45'1414.3
2015-Jan-20 14:33N 64°54' E 011°21'367 9.8
2015-Jan-19 01:06N 59°30' E 005°13'713.2
2015-Jan-19 00:33N 59°23' E 005°17'1514.6
2015-Jan-18 23:33N 59°09' E 005°23'1414.3
2015-Jan-18 22:34N 59°02' E 005°47'1010.4
2015-Jan-18 21:33N 58°51' E 005°45'1 1.2
2015-Jan-18 20:33N 58°52' E 005°45'1010.4
2015-Jan-18 19:33N 59°02' E 005°37'1313.0
2015-Jan-18 18:33N 58°50' E 005°27'22715.1
2015-Jan-18 03:30N 57°22' W 001°08'1515.6
2015-Jan-18 02:33N 57°16' W 001°33'131 5.2
2015-Jan-17 01:24N 55°08' W 000°42'1113.4
2015-Jan-17 00:33N 54°58' W 000°34'1313.3
2015-Jan-16 23:34N 54°46' W 000°24'1313.3
2015-Jan-16 22:34N 54°34' W 000°14'1414.0
2015-Jan-16 21:33N 54°21' W 000°05'1414.4
2015-Jan-16 20:33N 54°08' E 000°05'1514.8
2015-Jan-16 19:33N 53°54' E 000°14'1515.0
2015-Jan-16 18:33N 53°40' E 000°22'1111.5
2015-Jan-16 17:33N 53°34' E 000°06'1111.2
2015-Jan-16 16:33N 53°38' W 000°11'0 0.2
2015-Jan-16 15:33N 53°38' W 000°11'0 0.0
2015-Jan-16 14:34N 53°38' W 000°11'0 0.0
2015-Jan-16 13:33N 53°38' W 000°11'0 0.0
2015-Jan-16 12:33N 53°38' W 000°11'0 0.0
2015-Jan-16 11:33N 53°38' W 000°11'0 0.0
2015-Jan-16 10:33N 53°38' W 000°11'0 0.0
2015-Jan-16 09:34N 53°38' W 000°11'0 0.0
2015-Jan-16 08:33N 53°38' W 000°11'0 0.0
2015-Jan-16 07:33N 53°38' W 000°11'0 0.0
2015-Jan-16 06:34N 53°38' W 000°11'0 0.0
2015-Jan-16 05:33N 53°38' W 000°11'0 0.0
2015-Jan-16 04:33N 53°38' W 000°11'0 0.0
2015-Jan-16 03:34N 53°38' W 000°11'0 0.0
2015-Jan-16 02:34N 53°38' W 000°11'0 0.0
2015-Jan-16 01:33N 53°38' W 000°11'0 0.0
2015-Jan-16 00:33N 53°38' W 000°11'0 0.0
2015-Jan-15 23:33N 53°38' W 000°11'0 0.0
2015-Jan-15 22:33N 53°38' W 000°11'0 0.0
2015-Jan-15 21:33N 53°38' W 000°11'0 0.3
2015-Jan-15 20:33N 53°38' W 000°12'0 0.0
2015-Jan-15 19:33N 53°38' W 000°12'0 0.0
2015-Jan-15 18:33N 53°38' W 000°12'0 0.0
2015-Jan-15 17:34N 53°38' W 000°12'0 0.0
2015-Jan-15 16:34N 53°38' W 000°12'0 0.0
2015-Jan-15 15:34N 53°38' W 000°12'0 0.0
2015-Jan-15 14:33N 53°38' W 000°12'0 0.0
2015-Jan-15 13:33N 53°38' W 000°12'1 1.4
2015-Jan-15 12:33N 53°38' W 000°09'1211.7
2015-Jan-15 11:34N 53°33' E 000°09'1211.7
2015-Jan-15 10:33N 53°29' E 000°27'3912.8
2015-Jan-15 07:31N 53°13' E 001°26'1313.3
2015-Jan-15 06:33N 53°08' E 001°46'1313.3
2015-Jan-15 05:33N 53°01' E 002°05'7211.7
2015-Jan-14 23:24N 52°31' E 003°54'1011.2
2015-Jan-14 22:33N 52°31' E 004°09'1111.4
2015-Jan-14 21:33N 52°29' E 004°28'5 5.1
2015-Jan-14 20:33N 52°28' E 004°36'1 1.0
2015-Jan-14 19:34N 52°28' E 004°37'1 1.5
2015-Jan-14 18:33N 52°28' E 004°40'0 0.0
2015-Jan-14 17:32N 52°28' E 004°40'  

Dump ship's entire track history